sensor_id;sensor_type;location;lat;lon;timestamp;pressure;altitude;pressure_sealevel;temperature;humidity
79465;BME280;68932;47.410;8.232;2024-02-26T00:01:07;94944.44;;;6.83;66.17
79465;BME280;68932;47.410;8.232;2024-02-26T00:03:35;94942.76;;;6.85;66.01
79465;BME280;68932;47.410;8.232;2024-02-26T00:06:04;94945.30;;;6.86;66.04
79465;BME280;68932;47.410;8.232;2024-02-26T00:08:32;94938.42;;;6.87;65.80
79465;BME280;68932;47.410;8.232;2024-02-26T00:11:00;94932.94;;;6.88;65.87
79465;BME280;68932;47.410;8.232;2024-02-26T00:13:28;94936.55;;;6.88;65.98
79465;BME280;68932;47.410;8.232;2024-02-26T00:15:56;94937.52;;;6.89;66.07
79465;BME280;68932;47.410;8.232;2024-02-26T00:18:25;94941.48;;;6.90;66.30
79465;BME280;68932;47.410;8.232;2024-02-26T00:20:53;94928.41;;;6.90;66.37
79465;BME280;68932;47.410;8.232;2024-02-26T00:23:21;94928.47;;;6.89;66.27
79465;BME280;68932;47.410;8.232;2024-02-26T00:25:49;94939.83;;;6.89;66.29
79465;BME280;68932;47.410;8.232;2024-02-26T00:28:17;94937.31;;;6.87;66.32
79465;BME280;68932;47.410;8.232;2024-02-26T00:30:46;94941.93;;;6.86;66.23
79465;BME280;68932;47.410;8.232;2024-02-26T00:33:16;94936.38;;;6.86;66.19
79465;BME280;68932;47.410;8.232;2024-02-26T00:35:45;94939.31;;;6.86;66.23
79465;BME280;68932;47.410;8.232;2024-02-26T00:38:13;94942.98;;;6.86;66.31
79465;BME280;68932;47.410;8.232;2024-02-26T00:40:41;94941.20;;;6.87;66.38
79465;BME280;68932;47.410;8.232;2024-02-26T00:43:09;94946.02;;;6.87;66.43
79465;BME280;68932;47.410;8.232;2024-02-26T00:45:38;94949.11;;;6.88;66.40
79465;BME280;68932;47.410;8.232;2024-02-26T00:48:08;94952.04;;;6.88;66.49
79465;BME280;68932;47.410;8.232;2024-02-26T00:50:36;94953.11;;;6.90;66.50
79465;BME280;68932;47.410;8.232;2024-02-26T00:53:05;94949.95;;;6.90;66.56
79465;BME280;68932;47.410;8.232;2024-02-26T00:55:33;94947.36;;;6.90;66.63
79465;BME280;68932;47.410;8.232;2024-02-26T00:58:01;94944.48;;;6.91;66.70
79465;BME280;68932;47.410;8.232;2024-02-26T01:00:29;94939.23;;;6.91;66.76
79465;BME280;68932;47.410;8.232;2024-02-26T01:02:57;94940.67;;;6.91;66.87
79465;BME280;68932;47.410;8.232;2024-02-26T01:05:26;94937.05;;;6.90;66.96
79465;BME280;68932;47.410;8.232;2024-02-26T01:07:54;94939.89;;;6.92;67.25
79465;BME280;68932;47.410;8.232;2024-02-26T01:10:22;94931.63;;;6.93;67.30
79465;BME280;68932;47.410;8.232;2024-02-26T01:12:50;94923.08;;;6.93;67.42
79465;BME280;68932;47.410;8.232;2024-02-26T01:15:19;94918.98;;;6.94;67.55
79465;BME280;68932;47.410;8.232;2024-02-26T01:17:47;94919.92;;;6.95;67.51
79465;BME280;68932;47.410;8.232;2024-02-26T01:20:15;94919.05;;;6.97;67.59
79465;BME280;68932;47.410;8.232;2024-02-26T01:22:43;94919.95;;;6.99;67.60
79465;BME280;68932;47.410;8.232;2024-02-26T01:25:12;94919.43;;;7.01;67.74
79465;BME280;68932;47.410;8.232;2024-02-26T01:27:40;94918.73;;;7.03;67.87
79465;BME280;68932;47.410;8.232;2024-02-26T01:30:10;94917.09;;;7.04;68.08
79465;BME280;68932;47.410;8.232;2024-02-26T01:32:39;94911.59;;;7.05;68.03
79465;BME280;68932;47.410;8.232;2024-02-26T01:35:07;94914.23;;;7.05;68.21
79465;BME280;68932;47.410;8.232;2024-02-26T01:37:36;94916.70;;;7.07;68.30
79465;BME280;68932;47.410;8.232;2024-02-26T01:40:05;94913.30;;;7.07;68.44
79465;BME280;68932;47.410;8.232;2024-02-26T01:42:33;94911.89;;;7.10;68.51
79465;BME280;68932;47.410;8.232;2024-02-26T01:45:01;94910.54;;;7.12;68.61
79465;BME280;68932;47.410;8.232;2024-02-26T01:47:30;94904.19;;;7.14;68.71
79465;BME280;68932;47.410;8.232;2024-02-26T01:49:59;94900.23;;;7.16;68.87
79465;BME280;68932;47.410;8.232;2024-02-26T01:52:27;94895.69;;;7.16;69.02
79465;BME280;68932;47.410;8.232;2024-02-26T01:54:56;94901.82;;;7.15;69.11
79465;BME280;68932;47.410;8.232;2024-02-26T01:57:24;94924.19;;;7.17;69.18
79465;BME280;68932;47.410;8.232;2024-02-26T01:59:52;94922.21;;;7.18;69.44
79465;BME280;68932;47.410;8.232;2024-02-26T02:02:21;94923.34;;;7.18;69.56
79465;BME280;68932;47.410;8.232;2024-02-26T02:04:49;94923.84;;;7.19;69.80
79465;BME280;68932;47.410;8.232;2024-02-26T02:07:17;94927.39;;;7.20;69.73
79465;BME280;68932;47.410;8.232;2024-02-26T02:09:47;94927.19;;;7.20;69.75
79465;BME280;68932;47.410;8.232;2024-02-26T02:12:15;94926.63;;;7.21;69.70
79465;BME280;68932;47.410;8.232;2024-02-26T02:14:43;94922.64;;;7.21;69.66
79465;BME280;68932;47.410;8.232;2024-02-26T02:17:12;94911.67;;;7.23;69.83
79465;BME280;68932;47.410;8.232;2024-02-26T02:19:40;94906.34;;;7.24;69.95
79465;BME280;68932;47.410;8.232;2024-02-26T02:22:08;94898.38;;;7.23;70.05
79465;BME280;68932;47.410;8.232;2024-02-26T02:24:36;94888.84;;;7.23;70.10
79465;BME280;68932;47.410;8.232;2024-02-26T02:27:05;94886.85;;;7.24;70.08
79465;BME280;68932;47.410;8.232;2024-02-26T02:29:33;94875.45;;;7.25;70.20
79465;BME280;68932;47.410;8.232;2024-02-26T02:32:03;94872.66;;;7.25;69.98
79465;BME280;68932;47.410;8.232;2024-02-26T02:34:33;94875.13;;;7.24;69.88
79465;BME280;68932;47.410;8.232;2024-02-26T02:37:01;94875.35;;;7.24;69.93
79465;BME280;68932;47.410;8.232;2024-02-26T02:39:29;94878.73;;;7.21;70.17
79465;BME280;68932;47.410;8.232;2024-02-26T02:41:57;94871.41;;;7.18;70.48
79465;BME280;68932;47.410;8.232;2024-02-26T02:44:26;94848.23;;;7.16;70.70
79465;BME280;68932;47.410;8.232;2024-02-26T02:46:54;94836.93;;;7.14;70.44
79465;BME280;68932;47.410;8.232;2024-02-26T02:49:22;94834.52;;;7.12;70.16
79465;BME280;68932;47.410;8.232;2024-02-26T02:51:50;94839.05;;;7.10;70.41
79465;BME280;68932;47.410;8.232;2024-02-26T02:54:19;94858.45;;;7.07;70.83
79465;BME280;68932;47.410;8.232;2024-02-26T02:56:47;94857.94;;;7.07;70.91
79465;BME280;68932;47.410;8.232;2024-02-26T02:59:15;94861.70;;;7.06;70.86
79465;BME280;68932;47.410;8.232;2024-02-26T03:01:43;94866.04;;;7.06;70.90
79465;BME280;68932;47.410;8.232;2024-02-26T03:04:12;94868.08;;;7.07;71.11
79465;BME280;68932;47.410;8.232;2024-02-26T03:06:40;94870.51;;;7.07;71.20
79465;BME280;68932;47.410;8.232;2024-02-26T03:09:08;94878.42;;;7.06;71.27
79465;BME280;68932;47.410;8.232;2024-02-26T03:11:36;94880.03;;;7.03;71.25
79465;BME280;68932;47.410;8.232;2024-02-26T03:14:05;94878.82;;;7.01;71.36
79465;BME280;68932;47.410;8.232;2024-02-26T03:16:33;94883.63;;;7.00;71.36
79465;BME280;68932;47.410;8.232;2024-02-26T03:19:02;94885.19;;;7.00;71.39
79465;BME280;68932;47.410;8.232;2024-02-26T03:21:30;94890.05;;;6.98;71.54
79465;BME280;68932;47.410;8.232;2024-02-26T03:23:58;94887.63;;;6.98;71.58
79465;BME280;68932;47.410;8.232;2024-02-26T03:26:26;94887.48;;;6.98;71.71
79465;BME280;68932;47.410;8.232;2024-02-26T03:28:54;94886.27;;;6.97;71.93
79465;BME280;68932;47.410;8.232;2024-02-26T03:31:23;94888.81;;;6.98;71.90
79465;BME280;68932;47.410;8.232;2024-02-26T03:33:51;94885.67;;;6.98;72.00
79465;BME280;68932;47.410;8.232;2024-02-26T03:36:19;94886.05;;;6.96;72.05
79465;BME280;68932;47.410;8.232;2024-02-26T03:38:47;94891.55;;;6.95;72.24
79465;BME280;68932;47.410;8.232;2024-02-26T03:41:15;94894.92;;;6.94;72.32
79465;BME280;68932;47.410;8.232;2024-02-26T03:43:44;94888.66;;;6.94;72.68
79465;BME280;68932;47.410;8.232;2024-02-26T03:46:12;94903.27;;;6.94;72.77
79465;BME280;68932;47.410;8.232;2024-02-26T03:48:41;94904.58;;;6.94;73.05
79465;BME280;68932;47.410;8.232;2024-02-26T03:51:09;94910.87;;;6.93;73.09
79465;BME280;68932;47.410;8.232;2024-02-26T03:53:38;94910.95;;;6.92;73.26
79465;BME280;68932;47.410;8.232;2024-02-26T03:56:07;94916.87;;;6.92;73.45
79465;BME280;68932;47.410;8.232;2024-02-26T03:58:36;94927.02;;;6.91;73.62
79465;BME280;68932;47.410;8.232;2024-02-26T04:01:06;94927.97;;;6.91;73.69
79465;BME280;68932;47.410;8.232;2024-02-26T04:03:35;94934.97;;;6.90;73.71
79465;BME280;68932;47.410;8.232;2024-02-26T04:06:03;94937.13;;;6.89;73.93
79465;BME280;68932;47.410;8.232;2024-02-26T04:08:31;94942.83;;;6.88;74.16
79465;BME280;68932;47.410;8.232;2024-02-26T04:11:00;94949.91;;;6.87;74.26
79465;BME280;68932;47.410;8.232;2024-02-26T04:13:28;94952.09;;;6.86;74.31
79465;BME280;68932;47.410;8.232;2024-02-26T04:15:56;94947.14;;;6.85;74.37
79465;BME280;68932;47.410;8.232;2024-02-26T04:18:24;94942.97;;;6.84;74.42
79465;BME280;68932;47.410;8.232;2024-02-26T04:20:52;94944.02;;;6.84;74.46
79465;BME280;68932;47.410;8.232;2024-02-26T04:23:21;94946.96;;;6.85;74.55
79465;BME280;68932;47.410;8.232;2024-02-26T04:25:49;94944.03;;;6.84;74.71
79465;BME280;68932;47.410;8.232;2024-02-26T04:28:17;94943.89;;;6.84;74.63
79465;BME280;68932;47.410;8.232;2024-02-26T04:30:45;94941.63;;;6.84;74.67
79465;BME280;68932;47.410;8.232;2024-02-26T04:33:14;94940.52;;;6.85;74.68
79465;BME280;68932;47.410;8.232;2024-02-26T04:35:42;94934.55;;;6.85;74.79
79465;BME280;68932;47.410;8.232;2024-02-26T04:38:10;94933.89;;;6.85;74.70
79465;BME280;68932;47.410;8.232;2024-02-26T04:40:38;94924.40;;;6.84;74.61
79465;BME280;68932;47.410;8.232;2024-02-26T04:43:07;94934.16;;;6.84;74.65
79465;BME280;68932;47.410;8.232;2024-02-26T04:45:35;94942.30;;;6.84;74.75
79465;BME280;68932;47.410;8.232;2024-02-26T04:48:04;94936.20;;;6.84;74.80
79465;BME280;68932;47.410;8.232;2024-02-26T04:50:32;94937.06;;;6.84;74.65
79465;BME280;68932;47.410;8.232;2024-02-26T04:53:00;94937.77;;;6.84;74.67
79465;BME280;68932;47.410;8.232;2024-02-26T04:55:28;94942.72;;;6.85;74.64
79465;BME280;68932;47.410;8.232;2024-02-26T04:57:56;94945.38;;;6.85;74.67
79465;BME280;68932;47.410;8.232;2024-02-26T05:00:25;94942.55;;;6.83;74.59
79465;BME280;68932;47.410;8.232;2024-02-26T05:02:53;94944.30;;;6.83;74.60
79465;BME280;68932;47.410;8.232;2024-02-26T05:05:21;94943.89;;;6.84;74.64
79465;BME280;68932;47.410;8.232;2024-02-26T05:07:49;94933.23;;;6.84;74.59
79465;BME280;68932;47.410;8.232;2024-02-26T05:10:18;94938.08;;;6.85;74.56
79465;BME280;68932;47.410;8.232;2024-02-26T05:12:46;94945.34;;;6.85;74.58
79465;BME280;68932;47.410;8.232;2024-02-26T05:15:14;94947.53;;;6.86;74.58
79465;BME280;68932;47.410;8.232;2024-02-26T05:17:42;94951.19;;;6.86;74.51
79465;BME280;68932;47.410;8.232;2024-02-26T05:20:11;94940.94;;;6.86;74.40
79465;BME280;68932;47.410;8.232;2024-02-26T05:22:39;94946.48;;;6.84;74.33
79465;BME280;68932;47.410;8.232;2024-02-26T05:25:08;94948.02;;;6.82;74.36
79465;BME280;68932;47.410;8.232;2024-02-26T05:27:36;94957.36;;;6.83;74.42
79465;BME280;68932;47.410;8.232;2024-02-26T05:30:06;94955.02;;;6.84;74.45
79465;BME280;68932;47.410;8.232;2024-02-26T05:32:35;94951.70;;;6.84;74.44
79465;BME280;68932;47.410;8.232;2024-02-26T05:35:03;94952.73;;;6.82;74.39
79465;BME280;68932;47.410;8.232;2024-02-26T05:37:32;94951.96;;;6.81;74.38
79465;BME280;68932;47.410;8.232;2024-02-26T05:40:00;94944.20;;;6.80;74.54
79465;BME280;68932;47.410;8.232;2024-02-26T05:42:28;94932.95;;;6.79;74.46
79465;BME280;68932;47.410;8.232;2024-02-26T05:44:56;94935.67;;;6.79;74.42
79465;BME280;68932;47.410;8.232;2024-02-26T05:47:24;94927.41;;;6.81;74.43
79465;BME280;68932;47.410;8.232;2024-02-26T05:49:53;94928.87;;;6.82;74.53
79465;BME280;68932;47.410;8.232;2024-02-26T05:52:21;94928.53;;;6.84;74.58
79465;BME280;68932;47.410;8.232;2024-02-26T05:54:49;94928.35;;;6.86;74.54
79465;BME280;68932;47.410;8.232;2024-02-26T05:57:17;94923.02;;;6.88;74.47
79465;BME280;68932;47.410;8.232;2024-02-26T05:59:46;94922.59;;;6.88;74.42
79465;BME280;68932;47.410;8.232;2024-02-26T06:02:14;94933.80;;;6.90;74.37
79465;BME280;68932;47.410;8.232;2024-02-26T06:04:42;94942.28;;;6.90;74.40
79465;BME280;68932;47.410;8.232;2024-02-26T06:07:10;94943.61;;;6.91;74.30
79465;BME280;68932;47.410;8.232;2024-02-26T06:09:38;94941.80;;;6.92;74.43
79465;BME280;68932;47.410;8.232;2024-02-26T06:12:09;94940.50;;;6.91;74.38
79465;BME280;68932;47.410;8.232;2024-02-26T06:14:38;94940.11;;;6.89;74.38
79465;BME280;68932;47.410;8.232;2024-02-26T06:17:06;94951.47;;;6.89;74.28
79465;BME280;68932;47.410;8.232;2024-02-26T06:19:34;94952.54;;;6.89;74.41
79465;BME280;68932;47.410;8.232;2024-02-26T06:22:02;94960.54;;;6.89;74.47
79465;BME280;68932;47.410;8.232;2024-02-26T06:24:31;94965.09;;;6.88;74.46
79465;BME280;68932;47.410;8.232;2024-02-26T06:26:59;94966.59;;;6.89;74.45
79465;BME280;68932;47.410;8.232;2024-02-26T06:29:27;94971.45;;;6.89;74.49
79465;BME280;68932;47.410;8.232;2024-02-26T06:31:55;94970.69;;;6.88;74.51
79465;BME280;68932;47.410;8.232;2024-02-26T06:34:24;94979.69;;;6.87;74.58
79465;BME280;68932;47.410;8.232;2024-02-26T06:36:52;94984.43;;;6.86;74.62
79465;BME280;68932;47.410;8.232;2024-02-26T06:39:20;94991.00;;;6.87;74.73
79465;BME280;68932;47.410;8.232;2024-02-26T06:41:48;94986.19;;;6.88;74.83
79465;BME280;68932;47.410;8.232;2024-02-26T06:44:17;94978.96;;;6.89;74.80
79465;BME280;68932;47.410;8.232;2024-02-26T06:46:45;94986.30;;;6.89;74.83
79465;BME280;68932;47.410;8.232;2024-02-26T06:49:13;94986.15;;;6.89;74.82
79465;BME280;68932;47.410;8.232;2024-02-26T06:51:41;94986.83;;;6.89;74.87
79465;BME280;68932;47.410;8.232;2024-02-26T06:54:09;94988.70;;;6.89;74.91
79465;BME280;68932;47.410;8.232;2024-02-26T06:56:38;94993.52;;;6.90;74.83
79465;BME280;68932;47.410;8.232;2024-02-26T06:59:06;94993.73;;;6.91;74.92
79465;BME280;68932;47.410;8.232;2024-02-26T07:01:34;95000.58;;;6.93;74.98
79465;BME280;68932;47.410;8.232;2024-02-26T07:04:03;95007.47;;;6.94;75.02
79465;BME280;68932;47.410;8.232;2024-02-26T07:06:31;95011.01;;;6.95;75.02
79465;BME280;68932;47.410;8.232;2024-02-26T07:08:59;95004.80;;;6.97;75.09
79465;BME280;68932;47.410;8.232;2024-02-26T07:11:28;94995.89;;;6.99;75.07
79465;BME280;68932;47.410;8.232;2024-02-26T07:13:56;94991.88;;;7.01;75.14
79465;BME280;68932;47.410;8.232;2024-02-26T07:16:24;94986.33;;;7.03;75.28
79465;BME280;68932;47.410;8.232;2024-02-26T07:18:52;94986.27;;;7.06;75.26
79465;BME280;68932;47.410;8.232;2024-02-26T07:21:20;94985.73;;;7.10;75.22
79465;BME280;68932;47.410;8.232;2024-02-26T07:23:49;94974.71;;;7.15;75.37
79465;BME280;68932;47.410;8.232;2024-02-26T07:26:17;94963.44;;;7.20;75.36
79465;BME280;68932;47.410;8.232;2024-02-26T07:28:45;94961.89;;;7.25;75.29
79465;BME280;68932;47.410;8.232;2024-02-26T07:31:14;94958.28;;;7.30;75.20
79465;BME280;68932;47.410;8.232;2024-02-26T07:33:42;94962.36;;;7.35;75.19
79465;BME280;68932;47.410;8.232;2024-02-26T07:36:10;94960.89;;;7.38;74.98
79465;BME280;68932;47.410;8.232;2024-02-26T07:38:39;94968.20;;;7.42;75.01
79465;BME280;68932;47.410;8.232;2024-02-26T07:41:07;94976.90;;;7.47;74.84
79465;BME280;68932;47.410;8.232;2024-02-26T07:43:35;94982.37;;;7.50;74.90
79465;BME280;68932;47.410;8.232;2024-02-26T07:46:03;94983.98;;;7.55;74.86
79465;BME280;68932;47.410;8.232;2024-02-26T07:48:32;94989.77;;;7.61;74.74
79465;BME280;68932;47.410;8.232;2024-02-26T07:51:00;94989.55;;;7.66;74.66
79465;BME280;68932;47.410;8.232;2024-02-26T07:53:29;94986.92;;;7.70;74.42
79465;BME280;68932;47.410;8.232;2024-02-26T07:55:57;94991.98;;;7.76;74.31
79465;BME280;68932;47.410;8.232;2024-02-26T07:58:25;94991.70;;;7.83;73.96
79465;BME280;68932;47.410;8.232;2024-02-26T08:00:54;94989.93;;;7.90;73.54
79465;BME280;68932;47.410;8.232;2024-02-26T08:03:22;94993.23;;;7.96;73.44
79465;BME280;68932;47.410;8.232;2024-02-26T08:05:50;94987.75;;;8.01;72.85
79465;BME280;68932;47.410;8.232;2024-02-26T08:08:18;94985.16;;;8.06;72.54
79465;BME280;68932;47.410;8.232;2024-02-26T08:10:47;94989.11;;;8.13;72.69
79465;BME280;68932;47.410;8.232;2024-02-26T08:13:15;94992.71;;;8.20;72.53
79465;BME280;68932;47.410;8.232;2024-02-26T08:15:43;94992.73;;;8.27;72.09
79465;BME280;68932;47.410;8.232;2024-02-26T08:18:11;94989.18;;;8.30;71.73
79465;BME280;68932;47.410;8.232;2024-02-26T08:20:40;94983.36;;;8.33;71.37
79465;BME280;68932;47.410;8.232;2024-02-26T08:23:08;94982.38;;;8.40;71.43
79465;BME280;68932;47.410;8.232;2024-02-26T08:25:36;94982.13;;;8.49;71.04
79465;BME280;68932;47.410;8.232;2024-02-26T08:28:05;94986.73;;;8.58;70.96
79465;BME280;68932;47.410;8.232;2024-02-26T08:30:33;94986.77;;;8.65;70.75
79465;BME280;68932;47.410;8.232;2024-02-26T08:33:02;94984.20;;;8.71;70.52
79465;BME280;68932;47.410;8.232;2024-02-26T08:35:30;94981.73;;;8.76;70.35
79465;BME280;68932;47.410;8.232;2024-02-26T08:37:58;94982.56;;;8.81;69.99
79465;BME280;68932;47.410;8.232;2024-02-26T08:40:27;94989.98;;;8.85;69.59
79465;BME280;68932;47.410;8.232;2024-02-26T08:42:55;94997.80;;;8.89;69.68
79465;BME280;68932;47.410;8.232;2024-02-26T08:45:23;95001.67;;;8.92;69.29
79465;BME280;68932;47.410;8.232;2024-02-26T08:47:52;95005.64;;;8.93;69.08
79465;BME280;68932;47.410;8.232;2024-02-26T08:50:20;95011.67;;;8.95;69.26
79465;BME280;68932;47.410;8.232;2024-02-26T08:52:48;95009.46;;;9.00;69.52
79465;BME280;68932;47.410;8.232;2024-02-26T08:55:16;95012.53;;;9.07;69.75
79465;BME280;68932;47.410;8.232;2024-02-26T08:57:44;95019.02;;;9.12;69.65
79465;BME280;68932;47.410;8.232;2024-02-26T09:00:14;95022.68;;;9.14;69.55
79465;BME280;68932;47.410;8.232;2024-02-26T09:02:42;95021.11;;;9.18;69.71
79465;BME280;68932;47.410;8.232;2024-02-26T09:05:11;95016.81;;;9.19;69.44
79465;BME280;68932;47.410;8.232;2024-02-26T09:07:39;95016.30;;;9.21;69.70
79465;BME280;68932;47.410;8.232;2024-02-26T09:10:09;95007.89;;;9.22;69.48
79465;BME280;68932;47.410;8.232;2024-02-26T09:12:37;94992.63;;;9.20;69.28
79465;BME280;68932;47.410;8.232;2024-02-26T09:15:08;94986.05;;;9.22;69.53
79465;BME280;68932;47.410;8.232;2024-02-26T09:17:36;94987.27;;;9.24;69.52
79465;BME280;68932;47.410;8.232;2024-02-26T09:20:06;94990.32;;;9.23;69.30
79465;BME280;68932;47.410;8.232;2024-02-26T09:22:34;95002.67;;;9.24;69.40
79465;BME280;68932;47.410;8.232;2024-02-26T09:25:03;95009.69;;;9.27;69.45
79465;BME280;68932;47.410;8.232;2024-02-26T09:27:31;95015.13;;;9.30;69.53
79465;BME280;68932;47.410;8.232;2024-02-26T09:30:00;95019.95;;;9.35;69.49
79465;BME280;68932;47.410;8.232;2024-02-26T09:32:28;95018.77;;;9.40;69.23
79465;BME280;68932;47.410;8.232;2024-02-26T09:34:56;95016.00;;;9.46;69.06
79465;BME280;68932;47.410;8.232;2024-02-26T09:37:24;95018.52;;;9.50;68.72
79465;BME280;68932;47.410;8.232;2024-02-26T09:39:52;95016.23;;;9.52;68.34
79465;BME280;68932;47.410;8.232;2024-02-26T09:42:21;95018.48;;;9.56;68.23
79465;BME280;68932;47.410;8.232;2024-02-26T09:44:51;95016.94;;;9.62;68.09
79465;BME280;68932;47.410;8.232;2024-02-26T09:47:22;95015.56;;;9.67;68.25
79465;BME280;68932;47.410;8.232;2024-02-26T09:49:52;95014.25;;;9.72;67.97
79465;BME280;68932;47.410;8.232;2024-02-26T09:52:21;95017.23;;;9.76;67.66
79465;BME280;68932;47.410;8.232;2024-02-26T09:54:51;95020.14;;;9.76;67.06
79465;BME280;68932;47.410;8.232;2024-02-26T09:57:19;95016.00;;;9.72;66.91
79465;BME280;68932;47.410;8.232;2024-02-26T09:59:48;95011.50;;;9.70;66.88
79465;BME280;68932;47.410;8.232;2024-02-26T10:02:19;95015.14;;;9.72;67.07
79465;BME280;68932;47.410;8.232;2024-02-26T10:04:48;95017.94;;;9.74;66.88
79465;BME280;68932;47.410;8.232;2024-02-26T10:07:17;95018.85;;;9.72;66.32
79465;BME280;68932;47.410;8.232;2024-02-26T10:09:46;95015.42;;;9.69;66.49
79465;BME280;68932;47.410;8.232;2024-02-26T10:12:16;95016.63;;;9.71;66.83
79465;BME280;68932;47.410;8.232;2024-02-26T10:14:45;95020.54;;;9.74;66.98
79465;BME280;68932;47.410;8.232;2024-02-26T10:17:13;95019.70;;;9.77;66.68
79465;BME280;68932;47.410;8.232;2024-02-26T10:19:41;95025.71;;;9.82;66.81
79465;BME280;68932;47.410;8.232;2024-02-26T10:22:09;95027.48;;;9.87;67.18
79465;BME280;68932;47.410;8.232;2024-02-26T10:24:38;95031.81;;;9.93;67.12
79465;BME280;68932;47.410;8.232;2024-02-26T10:27:06;95040.07;;;9.99;66.78
79465;BME280;68932;47.410;8.232;2024-02-26T10:29:36;95033.64;;;10.02;66.52
79465;BME280;68932;47.410;8.232;2024-02-26T10:32:06;95037.95;;;10.06;66.48
79465;BME280;68932;47.410;8.232;2024-02-26T10:34:36;95045.45;;;10.10;66.44
79465;BME280;68932;47.410;8.232;2024-02-26T10:37:06;95053.00;;;10.14;66.21
79465;BME280;68932;47.410;8.232;2024-02-26T10:39:35;95059.03;;;10.15;66.05
79465;BME280;68932;47.410;8.232;2024-02-26T10:42:04;95062.98;;;10.17;66.02
79465;BME280;68932;47.410;8.232;2024-02-26T10:44:33;95062.61;;;10.21;66.25
79465;BME280;68932;47.410;8.232;2024-02-26T10:47:01;95059.71;;;10.24;66.49
79465;BME280;68932;47.410;8.232;2024-02-26T10:49:29;95064.43;;;10.26;66.15
79465;BME280;68932;47.410;8.232;2024-02-26T10:51:58;95064.15;;;10.26;65.88
79465;BME280;68932;47.410;8.232;2024-02-26T10:54:27;95066.78;;;10.24;65.70
79465;BME280;68932;47.410;8.232;2024-02-26T10:56:57;95068.21;;;10.18;65.71
79465;BME280;68932;47.410;8.232;2024-02-26T10:59:27;95070.27;;;10.11;65.57
79465;BME280;68932;47.410;8.232;2024-02-26T11:01:56;95067.95;;;10.04;65.83
79465;BME280;68932;47.410;8.232;2024-02-26T11:04:25;95069.19;;;10.00;65.66
79465;BME280;68932;47.410;8.232;2024-02-26T11:06:56;95069.41;;;9.99;66.04
79465;BME280;68932;47.410;8.232;2024-02-26T11:09:25;95067.00;;;10.01;66.12
79465;BME280;68932;47.410;8.232;2024-02-26T11:11:55;95070.46;;;10.03;66.19
79465;BME280;68932;47.410;8.232;2024-02-26T11:14:25;95071.41;;;10.05;66.07
79465;BME280;68932;47.410;8.232;2024-02-26T11:16:54;95074.97;;;10.04;65.64
79465;BME280;68932;47.410;8.232;2024-02-26T11:19:26;95073.23;;;10.04;65.72
79465;BME280;68932;47.410;8.232;2024-02-26T11:21:54;95066.16;;;10.03;65.45
79465;BME280;68932;47.410;8.232;2024-02-26T11:24:23;95068.88;;;9.99;65.46
79465;BME280;68932;47.410;8.232;2024-02-26T11:26:59;95060.94;;;9.98;65.39
79465;BME280;68932;47.410;8.232;2024-02-26T11:29:28;95055.23;;;9.99;65.82
79465;BME280;68932;47.410;8.232;2024-02-26T11:32:01;95047.77;;;10.01;66.18
79465;BME280;68932;47.410;8.232;2024-02-26T11:34:30;95045.13;;;10.03;66.01
79465;BME280;68932;47.410;8.232;2024-02-26T11:36:58;95040.73;;;10.05;66.17
79465;BME280;68932;47.410;8.232;2024-02-26T11:39:37;95040.93;;;10.08;66.19
79465;BME280;68932;47.410;8.232;2024-02-26T11:42:08;95044.80;;;10.12;66.24
79465;BME280;68932;47.410;8.232;2024-02-26T11:44:37;95046.22;;;10.17;66.25
79465;BME280;68932;47.410;8.232;2024-02-26T11:47:18;95046.52;;;10.23;66.26
79465;BME280;68932;47.410;8.232;2024-02-26T11:49:47;95046.65;;;10.27;65.79
79465;BME280;68932;47.410;8.232;2024-02-26T11:52:16;95038.98;;;10.29;65.44
79465;BME280;68932;47.410;8.232;2024-02-26T11:54:48;95035.58;;;10.33;65.52
79465;BME280;68932;47.410;8.232;2024-02-26T11:57:24;95037.55;;;10.34;65.23
79465;BME280;68932;47.410;8.232;2024-02-26T11:59:53;95034.02;;;10.37;65.40
79465;BME280;68932;47.410;8.232;2024-02-26T12:02:40;95033.34;;;10.42;65.26
79465;BME280;68932;47.410;8.232;2024-02-26T12:05:12;95034.83;;;10.52;65.24
79465;BME280;68932;47.410;8.232;2024-02-26T12:07:45;95035.23;;;10.61;64.86
79465;BME280;68932;47.410;8.232;2024-02-26T12:10:27;95032.04;;;10.66;64.10
79465;BME280;68932;47.410;8.232;2024-02-26T12:13:00;95039.04;;;10.67;63.85
79465;BME280;68932;47.410;8.232;2024-02-26T12:15:33;95040.13;;;10.66;63.73
79465;BME280;68932;47.410;8.232;2024-02-26T12:18:04;95043.90;;;10.67;63.44
79465;BME280;68932;47.410;8.232;2024-02-26T12:20:33;95039.02;;;10.65;63.26
79465;BME280;68932;47.410;8.232;2024-02-26T12:23:01;95035.40;;;10.67;63.29
79465;BME280;68932;47.410;8.232;2024-02-26T12:25:30;95033.13;;;10.71;63.49
79465;BME280;68932;47.410;8.232;2024-02-26T12:27:59;95039.75;;;10.81;63.54
79465;BME280;68932;47.410;8.232;2024-02-26T12:30:28;95035.52;;;10.89;63.42
79465;BME280;68932;47.410;8.232;2024-02-26T12:32:59;95030.02;;;10.96;63.02
79465;BME280;68932;47.410;8.232;2024-02-26T12:35:27;95028.19;;;11.02;62.47
79465;BME280;68932;47.410;8.232;2024-02-26T12:37:56;95030.60;;;11.04;62.11
79465;BME280;68932;47.410;8.232;2024-02-26T12:40:24;95034.69;;;11.08;61.95
79465;BME280;68932;47.410;8.232;2024-02-26T12:42:54;95038.23;;;11.14;62.12
79465;BME280;68932;47.410;8.232;2024-02-26T12:45:23;95044.58;;;11.27;62.29
79465;BME280;68932;47.410;8.232;2024-02-26T12:47:53;95049.06;;;11.40;61.75
79465;BME280;68932;47.410;8.232;2024-02-26T12:50:21;95045.19;;;11.52;61.63
79465;BME280;68932;47.410;8.232;2024-02-26T12:52:50;95037.91;;;11.65;61.98
79465;BME280;68932;47.410;8.232;2024-02-26T12:55:20;95024.36;;;11.77;61.18
79465;BME280;68932;47.410;8.232;2024-02-26T12:57:49;95018.73;;;11.83;59.83
79465;BME280;68932;47.410;8.232;2024-02-26T13:00:20;95017.96;;;11.82;59.48
79465;BME280;68932;47.410;8.232;2024-02-26T13:02:50;95023.19;;;11.80;58.98
79465;BME280;68932;47.410;8.232;2024-02-26T13:05:20;95025.63;;;11.75;58.39
79465;BME280;68932;47.410;8.232;2024-02-26T13:07:49;95033.36;;;11.68;58.76
79465;BME280;68932;47.410;8.232;2024-02-26T13:10:17;95037.27;;;11.68;58.96
79465;BME280;68932;47.410;8.232;2024-02-26T13:12:47;95030.77;;;11.70;58.74
79465;BME280;68932;47.410;8.232;2024-02-26T13:15:18;95031.89;;;11.72;58.66
79465;BME280;68932;47.410;8.232;2024-02-26T13:17:47;95028.84;;;11.73;58.10